sensor_id;sensor_type;location;lat;lon;timestamp;temperature;humidity
10030;DHT22;5055;52.054;8.524;2023-07-28T00:02:13;17.70;97.00
10030;DHT22;5055;52.054;8.524;2023-07-28T00:04:41;17.60;97.00
10030;DHT22;5055;52.054;8.524;2023-07-28T00:07:09;17.60;97.00
10030;DHT22;5055;52.054;8.524;2023-07-28T00:09:39;17.60;97.00
10030;DHT22;5055;52.054;8.524;2023-07-28T00:12:07;17.60;97.00
10030;DHT22;5055;52.054;8.524;2023-07-28T00:14:35;17.60;97.00
10030;DHT22;5055;52.054;8.524;2023-07-28T00:17:04;17.60;97.00
10030;DHT22;5055;52.054;8.524;2023-07-28T00:19:32;17.60;97.00
10030;DHT22;5055;52.054;8.524;2023-07-28T00:22:00;17.50;97.00
10030;DHT22;5055;52.054;8.524;2023-07-28T00:24:29;17.60;97.00
10030;DHT22;5055;52.054;8.524;2023-07-28T00:26:58;17.50;97.00
10030;DHT22;5055;52.054;8.524;2023-07-28T00:29:26;17.50;97.00
10030;DHT22;5055;52.054;8.524;2023-07-28T00:31:55;17.50;97.00
10030;DHT22;5055;52.054;8.524;2023-07-28T00:34:23;17.50;97.00
10030;DHT22;5055;52.054;8.524;2023-07-28T00:36:51;17.60;97.00
10030;DHT22;5055;52.054;8.524;2023-07-28T00:39:19;17.60;97.00
10030;DHT22;5055;52.054;8.524;2023-07-28T00:41:48;17.60;97.00
10030;DHT22;5055;52.054;8.524;2023-07-28T00:44:17;17.60;97.00
10030;DHT22;5055;52.054;8.524;2023-07-28T00:46:46;17.60;97.00
10030;DHT22;5055;52.054;8.524;2023-07-28T00:49:14;17.60;97.00
10030;DHT22;5055;52.054;8.524;2023-07-28T00:51:43;17.50;97.00
10030;DHT22;5055;52.054;8.524;2023-07-28T00:54:12;17.50;97.00
10030;DHT22;5055;52.054;8.524;2023-07-28T00:56:40;17.50;97.00
10030;DHT22;5055;52.054;8.524;2023-07-28T00:59:09;17.50;97.00
10030;DHT22;5055;52.054;8.524;2023-07-28T01:01:38;17.50;97.00
10030;DHT22;5055;52.054;8.524;2023-07-28T01:04:06;17.50;97.00
10030;DHT22;5055;52.054;8.524;2023-07-28T01:06:40;17.50;97.00
10030;DHT22;5055;52.054;8.524;2023-07-28T01:09:13;17.50;97.00
10030;DHT22;5055;52.054;8.524;2023-07-28T01:11:53;17.50;97.00
10030;DHT22;5055;52.054;8.524;2023-07-28T01:14:21;17.50;97.00
10030;DHT22;5055;52.054;8.524;2023-07-28T01:16:51;17.50;97.00
10030;DHT22;5055;52.054;8.524;2023-07-28T01:19:20;17.50;97.00
10030;DHT22;5055;52.054;8.524;2023-07-28T01:22:02;17.50;97.00
10030;DHT22;5055;52.054;8.524;2023-07-28T01:24:42;17.50;97.00
10030;DHT22;5055;52.054;8.524;2023-07-28T01:27:18;17.50;97.00
10030;DHT22;5055;52.054;8.524;2023-07-28T01:29:47;17.50;97.00
10030;DHT22;5055;52.054;8.524;2023-07-28T01:32:15;17.50;97.00
10030;DHT22;5055;52.054;8.524;2023-07-28T01:34:43;17.50;97.00
10030;DHT22;5055;52.054;8.524;2023-07-28T01:37:11;17.50;97.00
10030;DHT22;5055;52.054;8.524;2023-07-28T01:39:40;17.50;97.00
10030;DHT22;5055;52.054;8.524;2023-07-28T01:42:08;17.50;97.00
10030;DHT22;5055;52.054;8.524;2023-07-28T01:44:37;17.50;97.00
10030;DHT22;5055;52.054;8.524;2023-07-28T01:47:05;17.50;97.00
10030;DHT22;5055;52.054;8.524;2023-07-28T01:49:34;17.50;97.00
10030;DHT22;5055;52.054;8.524;2023-07-28T01:52:05;17.50;97.00
10030;DHT22;5055;52.054;8.524;2023-07-28T01:54:33;17.50;97.00
10030;DHT22;5055;52.054;8.524;2023-07-28T01:57:01;17.50;97.00
10030;DHT22;5055;52.054;8.524;2023-07-28T01:59:29;17.50;97.00
10030;DHT22;5055;52.054;8.524;2023-07-28T02:01:59;17.50;97.00
10030;DHT22;5055;52.054;8.524;2023-07-28T02:04:28;17.50;97.00
10030;DHT22;5055;52.054;8.524;2023-07-28T02:06:56;17.50;97.00
10030;DHT22;5055;52.054;8.524;2023-07-28T02:09:25;17.50;97.00
10030;DHT22;5055;52.054;8.524;2023-07-28T02:11:53;17.50;97.00
10030;DHT22;5055;52.054;8.524;2023-07-28T02:14:21;17.50;97.00
10030;DHT22;5055;52.054;8.524;2023-07-28T02:16:49;17.50;97.00
10030;DHT22;5055;52.054;8.524;2023-07-28T02:19:19;17.50;97.00
10030;DHT22;5055;52.054;8.524;2023-07-28T02:21:47;17.50;97.00
10030;DHT22;5055;52.054;8.524;2023-07-28T02:24:16;17.50;97.00
10030;DHT22;5055;52.054;8.524;2023-07-28T02:26:44;17.50;97.00
10030;DHT22;5055;52.054;8.524;2023-07-28T02:29:12;17.50;97.00
10030;DHT22;5055;52.054;8.524;2023-07-28T02:31:40;17.50;97.00
10030;DHT22;5055;52.054;8.524;2023-07-28T02:34:08;17.50;97.00
10030;DHT22;5055;52.054;8.524;2023-07-28T02:36:38;17.50;97.00
10030;DHT22;5055;52.054;8.524;2023-07-28T02:39:06;17.50;97.00
10030;DHT22;5055;52.054;8.524;2023-07-28T02:41:34;17.50;97.00
10030;DHT22;5055;52.054;8.524;2023-07-28T02:44:02;17.50;97.00
10030;DHT22;5055;52.054;8.524;2023-07-28T02:46:30;17.40;97.00
10030;DHT22;5055;52.054;8.524;2023-07-28T02:48:59;17.50;97.00
10030;DHT22;5055;52.054;8.524;2023-07-28T02:51:29;17.40;97.00
10030;DHT22;5055;52.054;8.524;2023-07-28T02:53:59;17.40;97.00
10030;DHT22;5055;52.054;8.524;2023-07-28T02:56:27;17.40;97.00
10030;DHT22;5055;52.054;8.524;2023-07-28T02:58:55;17.40;97.00
10030;DHT22;5055;52.054;8.524;2023-07-28T03:01:23;17.40;97.00
10030;DHT22;5055;52.054;8.524;2023-07-28T03:03:51;17.40;97.00
10030;DHT22;5055;52.054;8.524;2023-07-28T03:06:19;17.40;97.00
10030;DHT22;5055;52.054;8.524;2023-07-28T03:08:47;17.40;97.00
10030;DHT22;5055;52.054;8.524;2023-07-28T03:11:17;17.40;97.00
10030;DHT22;5055;52.054;8.524;2023-07-28T03:13:46;17.40;97.00
10030;DHT22;5055;52.054;8.524;2023-07-28T03:16:14;17.50;97.00
10030;DHT22;5055;52.054;8.524;2023-07-28T03:18:42;17.50;97.00
10030;DHT22;5055;52.054;8.524;2023-07-28T03:21:10;17.50;97.00
10030;DHT22;5055;52.054;8.524;2023-07-28T03:23:38;17.50;97.00
10030;DHT22;5055;52.054;8.524;2023-07-28T03:26:06;17.50;97.00
10030;DHT22;5055;52.054;8.524;2023-07-28T03:28:35;17.50;97.00
10030;DHT22;5055;52.054;8.524;2023-07-28T03:31:04;17.50;97.00
10030;DHT22;5055;52.054;8.524;2023-07-28T03:33:32;17.50;97.00
10030;DHT22;5055;52.054;8.524;2023-07-28T03:36:00;17.50;97.00
10030;DHT22;5055;52.054;8.524;2023-07-28T03:38:29;17.50;97.00
10030;DHT22;5055;52.054;8.524;2023-07-28T03:40:57;17.50;97.00
10030;DHT22;5055;52.054;8.524;2023-07-28T03:43:25;17.50;97.00
10030;DHT22;5055;52.054;8.524;2023-07-28T03:45:54;17.50;97.00
10030;DHT22;5055;52.054;8.524;2023-07-28T03:48:23;17.50;97.00
10030;DHT22;5055;52.054;8.524;2023-07-28T03:50:51;17.50;97.00
10030;DHT22;5055;52.054;8.524;2023-07-28T03:53:19;17.50;97.00
10030;DHT22;5055;52.054;8.524;2023-07-28T03:55:47;17.50;97.00
10030;DHT22;5055;52.054;8.524;2023-07-28T03:58:15;17.50;97.00
10030;DHT22;5055;52.054;8.524;2023-07-28T04:00:43;17.50;97.00
10030;DHT22;5055;52.054;8.524;2023-07-28T04:03:12;17.50;97.00
10030;DHT22;5055;52.054;8.524;2023-07-28T04:05:40;17.50;97.00
10030;DHT22;5055;52.054;8.524;2023-07-28T04:08:08;17.50;97.00
10030;DHT22;5055;52.054;8.524;2023-07-28T04:10:36;17.50;97.00
10030;DHT22;5055;52.054;8.524;2023-07-28T04:13:04;17.50;97.00
10030;DHT22;5055;52.054;8.524;2023-07-28T04:15:32;17.50;97.00
10030;DHT22;5055;52.054;8.524;2023-07-28T04:18:00;17.50;97.00
10030;DHT22;5055;52.054;8.524;2023-07-28T04:20:30;17.50;97.00
10030;DHT22;5055;52.054;8.524;2023-07-28T04:22:58;17.50;97.00
10030;DHT22;5055;52.054;8.524;2023-07-28T04:25:26;17.50;97.00
10030;DHT22;5055;52.054;8.524;2023-07-28T04:27:54;17.50;97.00
10030;DHT22;5055;52.054;8.524;2023-07-28T04:30:23;17.50;97.00
10030;DHT22;5055;52.054;8.524;2023-07-28T04:32:51;17.50;97.00
10030;DHT22;5055;52.054;8.524;2023-07-28T04:35:19;17.50;97.00
10030;DHT22;5055;52.054;8.524;2023-07-28T04:37:49;17.50;97.00
10030;DHT22;5055;52.054;8.524;2023-07-28T04:40:17;17.50;97.00
10030;DHT22;5055;52.054;8.524;2023-07-28T04:42:45;17.60;97.00
10030;DHT22;5055;52.054;8.524;2023-07-28T04:45:13;17.50;97.00
10030;DHT22;5055;52.054;8.524;2023-07-28T04:47:41;17.60;97.00
10030;DHT22;5055;52.054;8.524;2023-07-28T04:50:09;17.60;97.00
10030;DHT22;5055;52.054;8.524;2023-07-28T04:52:38;17.50;97.00
10030;DHT22;5055;52.054;8.524;2023-07-28T04:55:08;17.50;97.00
10030;DHT22;5055;52.054;8.524;2023-07-28T04:57:36;17.50;97.00
10030;DHT22;5055;52.054;8.524;2023-07-28T05:00:05;17.60;97.00
10030;DHT22;5055;52.054;8.524;2023-07-28T05:02:36;17.60;97.00
10030;DHT22;5055;52.054;8.524;2023-07-28T05:05:05;17.60;97.00
10030;DHT22;5055;52.054;8.524;2023-07-28T05:07:33;17.60;97.00
10030;DHT22;5055;52.054;8.524;2023-07-28T05:10:01;17.60;97.00
10030;DHT22;5055;52.054;8.524;2023-07-28T05:12:31;17.70;97.00
10030;DHT22;5055;52.054;8.524;2023-07-28T05:14:59;17.70;97.00
10030;DHT22;5055;52.054;8.524;2023-07-28T05:17:27;17.70;97.00
10030;DHT22;5055;52.054;8.524;2023-07-28T05:19:55;17.70;97.00
10030;DHT22;5055;52.054;8.524;2023-07-28T05:22:23;17.70;97.00
10030;DHT22;5055;52.054;8.524;2023-07-28T05:24:52;17.70;97.00
10030;DHT22;5055;52.054;8.524;2023-07-28T05:27:20;17.80;97.00
10030;DHT22;5055;52.054;8.524;2023-07-28T05:29:50;17.80;97.00
10030;DHT22;5055;52.054;8.524;2023-07-28T05:32:18;17.80;97.00
10030;DHT22;5055;52.054;8.524;2023-07-28T05:34:46;17.80;97.00
10030;DHT22;5055;52.054;8.524;2023-07-28T05:37:15;17.90;97.00
10030;DHT22;5055;52.054;8.524;2023-07-28T05:39:43;17.90;97.00
10030;DHT22;5055;52.054;8.524;2023-07-28T05:42:11;18.00;97.00
10030;DHT22;5055;52.054;8.524;2023-07-28T05:44:39;18.00;97.00
10030;DHT22;5055;52.054;8.524;2023-07-28T05:47:09;18.00;97.00
10030;DHT22;5055;52.054;8.524;2023-07-28T05:49:37;18.10;97.00
10030;DHT22;5055;52.054;8.524;2023-07-28T05:52:05;18.10;97.00
10030;DHT22;5055;52.054;8.524;2023-07-28T05:54:34;18.10;97.00
10030;DHT22;5055;52.054;8.524;2023-07-28T05:57:02;18.10;97.00
10030;DHT22;5055;52.054;8.524;2023-07-28T05:59:30;18.10;97.00
10030;DHT22;5055;52.054;8.524;2023-07-28T06:01:58;18.10;97.00
10030;DHT22;5055;52.054;8.524;2023-07-28T06:04:28;18.10;97.00
10030;DHT22;5055;52.054;8.524;2023-07-28T06:06:56;18.10;97.00
10030;DHT22;5055;52.054;8.524;2023-07-28T06:09:24;18.10;97.00
10030;DHT22;5055;52.054;8.524;2023-07-28T06:11:53;18.10;97.00
10030;DHT22;5055;52.054;8.524;2023-07-28T06:14:21;18.20;97.00
10030;DHT22;5055;52.054;8.524;2023-07-28T06:16:49;18.20;97.00
10030;DHT22;5055;52.054;8.524;2023-07-28T06:19:19;18.20;97.00
10030;DHT22;5055;52.054;8.524;2023-07-28T06:21:52;18.20;97.00
10030;DHT22;5055;52.054;8.524;2023-07-28T06:24:21;18.20;97.00
10030;DHT22;5055;52.054;8.524;2023-07-28T06:26:49;18.20;97.00
10030;DHT22;5055;52.054;8.524;2023-07-28T06:29:18;18.20;97.00
10030;DHT22;5055;52.054;8.524;2023-07-28T06:31:46;18.20;97.00
10030;DHT22;5055;52.054;8.524;2023-07-28T06:34:15;18.20;97.00
10030;DHT22;5055;52.054;8.524;2023-07-28T06:36:43;18.20;97.00
10030;DHT22;5055;52.054;8.524;2023-07-28T06:39:13;18.20;97.00
10030;DHT22;5055;52.054;8.524;2023-07-28T06:41:41;18.20;97.00
10030;DHT22;5055;52.054;8.524;2023-07-28T06:44:09;18.20;97.00
10030;DHT22;5055;52.054;8.524;2023-07-28T06:46:37;18.20;97.00
10030;DHT22;5055;52.054;8.524;2023-07-28T06:49:05;18.20;97.00
10030;DHT22;5055;52.054;8.524;2023-07-28T06:51:33;18.30;97.00
10030;DHT22;5055;52.054;8.524;2023-07-28T06:54:02;18.30;97.00
10030;DHT22;5055;52.054;8.524;2023-07-28T06:56:32;18.40;97.00
10030;DHT22;5055;52.054;8.524;2023-07-28T06:59:00;18.40;97.00
10030;DHT22;5055;52.054;8.524;2023-07-28T07:01:40;18.50;97.00
10030;DHT22;5055;52.054;8.524;2023-07-28T07:04:09;18.50;97.00
10030;DHT22;5055;52.054;8.524;2023-07-28T07:06:38;18.60;97.00
10030;DHT22;5055;52.054;8.524;2023-07-28T07:09:06;18.60;97.00
10030;DHT22;5055;52.054;8.524;2023-07-28T07:11:36;18.60;97.00
10030;DHT22;5055;52.054;8.524;2023-07-28T07:14:04;18.70;97.00
10030;DHT22;5055;52.054;8.524;2023-07-28T07:16:33;18.70;97.00
10030;DHT22;5055;52.054;8.524;2023-07-28T07:19:01;18.70;97.00
10030;DHT22;5055;52.054;8.524;2023-07-28T07:21:30;18.70;97.00
10030;DHT22;5055;52.054;8.524;2023-07-28T07:24:00;18.70;97.00
10030;DHT22;5055;52.054;8.524;2023-07-28T07:26:28;18.60;97.00
10030;DHT22;5055;52.054;8.524;2023-07-28T07:28:58;18.60;97.00
10030;DHT22;5055;52.054;8.524;2023-07-28T07:31:26;18.60;97.00
10030;DHT22;5055;52.054;8.524;2023-07-28T07:33:55;18.60;97.00
10030;DHT22;5055;52.054;8.524;2023-07-28T07:36:23;18.70;97.00
10030;DHT22;5055;52.054;8.524;2023-07-28T07:38:51;18.80;97.00
10030;DHT22;5055;52.054;8.524;2023-07-28T07:41:21;18.90;97.00
10030;DHT22;5055;52.054;8.524;2023-07-28T07:43:52;19.00;97.00
10030;DHT22;5055;52.054;8.524;2023-07-28T07:46:22;19.20;97.00
10030;DHT22;5055;52.054;8.524;2023-07-28T07:48:50;19.30;97.00
10030;DHT22;5055;52.054;8.524;2023-07-28T07:51:18;19.20;97.00
10030;DHT22;5055;52.054;8.524;2023-07-28T07:53:47;19.30;97.00
10030;DHT22;5055;52.054;8.524;2023-07-28T07:56:15;19.40;97.00
10030;DHT22;5055;52.054;8.524;2023-07-28T07:58:43;19.50;97.00
10030;DHT22;5055;52.054;8.524;2023-07-28T08:01:12;19.60;97.00
10030;DHT22;5055;52.054;8.524;2023-07-28T08:03:41;19.70;97.00
10030;DHT22;5055;52.054;8.524;2023-07-28T08:06:09;19.90;97.00
10030;DHT22;5055;52.054;8.524;2023-07-28T08:08:38;20.10;97.00
10030;DHT22;5055;52.054;8.524;2023-07-28T08:11:10;20.30;97.00
10030;DHT22;5055;52.054;8.524;2023-07-28T08:13:38;20.50;97.00
10030;DHT22;5055;52.054;8.524;2023-07-28T08:16:06;20.60;97.00
10030;DHT22;5055;52.054;8.524;2023-07-28T08:18:35;20.60;97.00
10030;DHT22;5055;52.054;8.524;2023-07-28T08:21:05;20.70;97.00
10030;DHT22;5055;52.054;8.524;2023-07-28T08:23:33;20.90;97.00
10030;DHT22;5055;52.054;8.524;2023-07-28T08:26:01;21.00;97.00
10030;DHT22;5055;52.054;8.524;2023-07-28T08:28:30;21.10;97.00
10030;DHT22;5055;52.054;8.524;2023-07-28T08:30:59;21.10;97.00
10030;DHT22;5055;52.054;8.524;2023-07-28T08:33:28;21.40;97.00
10030;DHT22;5055;52.054;8.524;2023-07-28T08:35:56;21.50;97.00
10030;DHT22;5055;52.054;8.524;2023-07-28T08:38:29;21.80;97.00
10030;DHT22;5055;52.054;8.524;2023-07-28T08:40:57;22.00;97.00
10030;DHT22;5055;52.054;8.524;2023-07-28T08:43:26;22.10;97.00
10030;DHT22;5055;52.054;8.524;2023-07-28T08:45:54;22.20;97.00
10030;DHT22;5055;52.054;8.524;2023-07-28T08:48:22;22.20;97.00
10030;DHT22;5055;52.054;8.524;2023-07-28T08:50:52;21.90;97.00
10030;DHT22;5055;52.054;8.524;2023-07-28T08:53:20;21.70;97.00
10030;DHT22;5055;52.054;8.524;2023-07-28T08:55:50;21.60;97.00
10030;DHT22;5055;52.054;8.524;2023-07-28T08:58:20;21.70;97.00
10030;DHT22;5055;52.054;8.524;2023-07-28T09:00:49;21.90;97.00
10030;DHT22;5055;52.054;8.524;2023-07-28T09:03:18;22.00;97.00
10030;DHT22;5055;52.054;8.524;2023-07-28T09:05:47;22.00;97.00
10030;DHT22;5055;52.054;8.524;2023-07-28T09:08:15;22.00;97.00
10030;DHT22;5055;52.054;8.524;2023-07-28T09:10:45;21.80;97.00
10030;DHT22;5055;52.054;8.524;2023-07-28T09:13:15;21.50;97.00
10030;DHT22;5055;52.054;8.524;2023-07-28T09:15:44;21.40;97.00
10030;DHT22;5055;52.054;8.524;2023-07-28T09:18:16;21.50;97.00
10030;DHT22;5055;52.054;8.524;2023-07-28T09:20:44;22.10;97.00
10030;DHT22;5055;52.054;8.524;2023-07-28T09:23:14;22.40;97.00
10030;DHT22;5055;52.054;8.524;2023-07-28T09:25:43;22.50;97.00
10030;DHT22;5055;52.054;8.524;2023-07-28T09:28:12;22.80;97.00
10030;DHT22;5055;52.054;8.524;2023-07-28T09:30:46;23.10;97.00
10030;DHT22;5055;52.054;8.524;2023-07-28T09:33:29;23.10;97.00
10030;DHT22;5055;52.054;8.524;2023-07-28T09:36:07;23.10;97.00
10030;DHT22;5055;52.054;8.524;2023-07-28T09:38:37;23.00;97.00
10030;DHT22;5055;52.054;8.524;2023-07-28T09:41:06;23.10;97.00
10030;DHT22;5055;52.054;8.524;2023-07-28T09:43:36;23.20;97.00
10030;DHT22;5055;52.054;8.524;2023-07-28T09:46:07;23.10;97.00
10030;DHT22;5055;52.054;8.524;2023-07-28T09:48:37;23.00;97.00
10030;DHT22;5055;52.054;8.524;2023-07-28T09:51:11;23.20;97.00
10030;DHT22;5055;52.054;8.524;2023-07-28T09:53:46;23.50;97.00
10030;DHT22;5055;52.054;8.524;2023-07-28T09:56:15;23.50;97.00
10030;DHT22;5055;52.054;8.524;2023-07-28T09:58:52;23.30;97.00
10030;DHT22;5055;52.054;8.524;2023-07-28T10:01:23;23.20;97.00
10030;DHT22;5055;52.054;8.524;2023-07-28T10:03:51;23.20;97.00
10030;DHT22;5055;52.054;8.524;2023-07-28T10:06:20;23.30;97.00
10030;DHT22;5055;52.054;8.524;2023-07-28T10:08:50;22.90;97.00
10030;DHT22;5055;52.054;8.524;2023-07-28T10:11:18;22.90;97.00
10030;DHT22;5055;52.054;8.524;2023-07-28T10:13:50;22.90;97.00
10030;DHT22;5055;52.054;8.524;2023-07-28T10:16:18;22.80;97.00
10030;DHT22;5055;52.054;8.524;2023-07-28T10:18:54;22.50;97.00
10030;DHT22;5055;52.054;8.524;2023-07-28T10:21:27;22.30;97.00
10030;DHT22;5055;52.054;8.524;2023-07-28T10:23:57;22.30;97.00
10030;DHT22;5055;52.054;8.524;2023-07-28T10:26:31;22.10;97.00
10030;DHT22;5055;52.054;8.524;2023-07-28T10:29:12;22.30;97.00
10030;DHT22;5055;52.054;8.524;2023-07-28T10:31:51;22.70;97.00
10030;DHT22;5055;52.054;8.524;2023-07-28T10:34:22;23.00;97.00
10030;DHT22;5055;52.054;8.524;2023-07-28T10:36:58;22.90;97.00
10030;DHT22;5055;52.054;8.524;2023-07-28T10:39:26;22.80;97.00
10030;DHT22;5055;52.054;8.524;2023-07-28T10:42:03;22.60;97.00
10030;DHT22;5055;52.054;8.524;2023-07-28T10:44:32;22.50;97.00
10030;DHT22;5055;52.054;8.524;2023-07-28T10:47:01;22.20;97.00
10030;DHT22;5055;52.054;8.524;2023-07-28T10:49:32;22.00;97.00
10030;DHT22;5055;52.054;8.524;2023-07-28T10:52:01;21.90;97.00
10030;DHT22;5055;52.054;8.524;2023-07-28T10:54:31;21.60;97.00
10030;DHT22;5055;52.054;8.524;2023-07-28T10:57:02;21.40;97.00
10030;DHT22;5055;52.054;8.524;2023-07-28T10:59:32;21.30;97.00
10030;DHT22;5055;52.054;8.524;2023-07-28T11:02:00;21.30;97.00
10030;DHT22;5055;52.054;8.524;2023-07-28T11:04:28;21.50;97.00
10030;DHT22;5055;52.054;8.524;2023-07-28T11:06:58;21.50;97.00
10030;DHT22;5055;52.054;8.524;2023-07-28T11:09:26;21.50;97.00
10030;DHT22;5055;52.054;8.524;2023-07-28T11:11:54;21.60;97.00
10030;DHT22;5055;52.054;8.524;2023-07-28T11:14:23;21.60;97.00
10030;DHT22;5055;52.054;8.524;2023-07-28T11:16:52;21.60;97.00
10030;DHT22;5055;52.054;8.524;2023-07-28T11:19:21;21.90;97.00
10030;DHT22;5055;52.054;8.524;2023-07-28T11:21:54;22.20;97.00
10030;DHT22;5055;52.054;8.524;2023-07-28T11:24:24;22.60;97.00
10030;DHT22;5055;52.054;8.524;2023-07-28T11:26:53;22.70;97.00
10030;DHT22;5055;52.054;8.524;2023-07-28T11:29:22;22.70;97.00
10030;DHT22;5055;52.054;8.524;2023-07-28T11:31:50;23.00;97.00
10030;DHT22;5055;52.054;8.524;2023-07-28T11:34:19;23.30;97.00
10030;DHT22;5055;52.054;8.524;2023-07-28T11:36:47;23.70;97.00
10030;DHT22;5055;52.054;8.524;2023-07-28T11:39:16;23.70;97.00
10030;DHT22;5055;52.054;8.524;2023-07-28T11:41:46;23.70;97.00
10030;DHT22;5055;52.054;8.524;2023-07-28T11:44:15;23.90;97.00
10030;DHT22;5055;52.054;8.524;2023-07-28T11:46:44;24.20;97.00
10030;DHT22;5055;52.054;8.524;2023-07-28T11:49:14;24.30;97.00
10030;DHT22;5055;52.054;8.524;2023-07-28T11:51:44;24.90;97.00
10030;DHT22;5055;52.054;8.524;2023-07-28T11:54:14;24.70;97.00
10030;DHT22;5055;52.054;8.524;2023-07-28T11:56:42;24.90;97.00
10030;DHT22;5055;52.054;8.524;2023-07-28T11:59:15;25.00;97.00
10030;DHT22;5055;52.054;8.524;2023-07-28T12:01:53;25.10;97.00
10030;DHT22;5055;52.054;8.524;2023-07-28T12:04:26;25.10;97.00
10030;DHT22;5055;52.054;8.524;2023-07-28T12:07:01;24.50;97.00
10030;DHT22;5055;52.054;8.524;2023-07-28T12:09:32;24.70;97.00
10030;DHT22;5055;52.054;8.524;2023-07-28T12:12:01;24.90;97.00
10030;DHT22;5055;52.054;8.524;2023-07-28T12:14:34;24.60;97.00
10030;DHT22;5055;52.054;8.524;2023-07-28T12:17:12;24.50;97.00
10030;DHT22;5055;52.054;8.524;2023-07-28T12:19:55;24.60;97.00
10030;DHT22;5055;52.054;8.524;2023-07-28T12:22:23;24.60;97.00
10030;DHT22;5055;52.054;8.524;2023-07-28T12:24:52;25.10;97.00
10030;DHT22;5055;52.054;8.524;2023-07-28T12:27:20;25.00;97.00
10030;DHT22;5055;52.054;8.524;2023-07-28T12:30:00;24.80;97.00
10030;DHT22;5055;52.054;8.524;2023-07-28T12:32:30;24.60;97.00
10030;DHT22;5055;52.054;8.524;2023-07-28T12:35:04;24.80;97.00
10030;DHT22;5055;52.054;8.524;2023-07-28T12:37:36;25.10;97.00
10030;DHT22;5055;52.054;8.524;2023-07-28T12:40:08;25.50;97.00
10030;DHT22;5055;52.054;8.524;2023-07-28T12:42:58;25.80;97.00
10030;DHT22;5055;52.054;8.524;2023-07-28T12:45:31;25.60;97.00
10030;DHT22;5055;52.054;8.524;2023-07-28T12:48:02;25.60;97.00
10030;DHT22;5055;52.054;8.524;2023-07-28T12:50:30;26.20;97.00
10030;DHT22;5055;52.054;8.524;2023-07-28T12:53:01;26.20;97.00
10030;DHT22;5055;52.054;8.524;2023-07-28T12:55:41;26.80;97.00
10030;DHT22;5055;52.054;8.524;2023-07-28T12:58:13;26.80;97.00
10030;DHT22;5055;52.054;8.524;2023-07-28T13:00:45;26.80;97.00
10030;DHT22;5055;52.054;8.524;2023-07-28T13:03:16;26.70;97.00
10030;DHT22;5055;52.054;8.524;2023-07-28T13:05:45;27.00;97.00
10030;DHT22;5055;52.054;8.524;2023-07-28T13:08:15;27.70;97.00
10030;DHT22;5055;52.054;8.524;2023-07-28T13:10:43;28.00;97.00
10030;DHT22;5055;52.054;8.524;2023-07-28T13:13:14;27.80;97.00
10030;DHT22;5055;52.054;8.524;2023-07-28T13:15:44;27.80;97.00
10030;DHT22;5055;52.054;8.524;2023-07-28T13:18:12;28.00;97.00
10030;DHT22;5055;52.054;8.524;2023-07-28T13:20:41;28.00;97.00
10030;DHT22;5055;52.054;8.524;2023-07-28T13:23:09;27.50;97.00
10030;DHT22;5055;52.054;8.524;2023-07-28T13:25:37;26.70;97.00
10030;DHT22;5055;52.054;8.524;2023-07-28T13:28:05;26.70;97.00
10030;DHT22;5055;52.054;8.524;2023-07-28T13:30:39;26.70;97.00
10030;DHT22;5055;52.054;8.524;2023-07-28T13:33:08;26.70;97.00
10030;DHT22;5055;52.054;8.524;2023-07-28T13:35:37;26.90;97.00
10030;DHT22;5055;52.054;8.524;2023-07-28T13:38:05;27.50;97.00
10030;DHT22;5055;52.054;8.524;2023-07-28T13:40:34;27.30;97.00
10030;DHT22;5055;52.054;8.524;2023-07-28T13:43:04;27.10;97.00
10030;DHT22;5055;52.054;8.524;2023-07-28T13:45:33;27.00;97.00
10030;DHT22;5055;52.054;8.524;2023-07-28T13:48:01;27.00;97.00
10030;DHT22;5055;52.054;8.524;2023-07-28T13:50:31;27.00;97.00
10030;DHT22;5055;52.054;8.524;2023-07-28T13:53:02;27.00;97.00
10030;DHT22;5055;52.054;8.524;2023-07-28T13:55:33;26.80;97.00
10030;DHT22;5055;52.054;8.524;2023-07-28T13:58:04;27.00;97.00
10030;DHT22;5055;52.054;8.524;2023-07-28T14:00:33;27.60;97.00
10030;DHT22;5055;52.054;8.524;2023-07-28T14:03:02;28.00;97.00
10030;DHT22;5055;52.054;8.524;2023-07-28T14:05:31;28.00;97.00
10030;DHT22;5055;52.054;8.524;2023-07-28T14:07:59;27.90;97.00
10030;DHT22;5055;52.054;8.524;2023-07-28T14:10:27;27.80;97.00
10030;DHT22;5055;52.054;8.524;2023-07-28T14:12:56;28.00;97.00
10030;DHT22;5055;52.054;8.524;2023-07-28T14:15:24;28.20;97.00
10030;DHT22;5055;52.054;8.524;2023-07-28T14:17:52;27.70;97.00
10030;DHT22;5055;52.054;8.524;2023-07-28T14:20:20;27.90;97.00
10030;DHT22;5055;52.054;8.524;2023-07-28T14:22:50;28.10;97.00
10030;DHT22;5055;52.054;8.524;2023-07-28T14:25:18;27.70;97.00
10030;DHT22;5055;52.054;8.524;2023-07-28T14:27:46;27.40;97.00
10030;DHT22;5055;52.054;8.524;2023-07-28T14:30:14;27.70;97.00
10030;DHT22;5055;52.054;8.524;2023-07-28T14:32:43;27.90;97.00
10030;DHT22;5055;52.054;8.524;2023-07-28T14:35:11;28.00;97.00
10030;DHT22;5055;52.054;8.524;2023-07-28T14:37:39;28.30;97.00
10030;DHT22;5055;52.054;8.524;2023-07-28T14:40:09;28.30;97.00
10030;DHT22;5055;52.054;8.524;2023-07-28T14:42:38;28.80;97.00
10030;DHT22;5055;52.054;8.524;2023-07-28T14:45:07;28.50;97.00
10030;DHT22;5055;52.054;8.524;2023-07-28T14:47:35;27.80;97.00
10030;DHT22;5055;52.054;8.524;2023-07-28T14:50:04;27.70;97.00
10030;DHT22;5055;52.054;8.524;2023-07-28T14:52:32;28.00;97.00
10030;DHT22;5055;52.054;8.524;2023-07-28T14:55:00;28.50;97.00
10030;DHT22;5055;52.054;8.524;2023-07-28T14:57:30;29.20;97.00
10030;DHT22;5055;52.054;8.524;2023-07-28T15:00:01;29.10;97.00
10030;DHT22;5055;52.054;8.524;2023-07-28T15:02:29;29.70;97.00
10030;DHT22;5055;52.054;8.524;2023-07-28T15:04:57;30.00;97.00
10030;DHT22;5055;52.054;8.524;2023-07-28T15:07:26;30.40;97.00
10030;DHT22;5055;52.054;8.524;2023-07-28T15:09:54;30.10;97.00
10030;DHT22;5055;52.054;8.524;2023-07-28T15:12:22;29.90;97.00
10030;DHT22;5055;52.054;8.524;2023-07-28T15:14:52;30.00;97.00
10030;DHT22;5055;52.054;8.524;2023-07-28T15:17:20;29.70;97.00
10030;DHT22;5055;52.054;8.524;2023-07-28T15:19:48;29.60;97.00
10030;DHT22;5055;52.054;8.524;2023-07-28T15:22:16;29.50;97.00
10030;DHT22;5055;52.054;8.524;2023-07-28T15:24:44;29.10;97.00
10030;DHT22;5055;52.054;8.524;2023-07-28T15:27:12;28.70;97.00
10030;DHT22;5055;52.054;8.524;2023-07-28T15:29:40;28.60;97.00
10030;DHT22;5055;52.054;8.524;2023-07-28T15:32:09;28.60;97.00
10030;DHT22;5055;52.054;8.524;2023-07-28T15:34:38;28.50;97.00
10030;DHT22;5055;52.054;8.524;2023-07-28T15:37:06;28.50;97.00
10030;DHT22;5055;52.054;8.524;2023-07-28T15:39:34;28.90;97.00
10030;DHT22;5055;52.054;8.524;2023-07-28T15:42:03;28.80;97.00
10030;DHT22;5055;52.054;8.524;2023-07-28T15:44:31;28.80;97.00
10030;DHT22;5055;52.054;8.524;2023-07-28T15:46:59;28.60;97.00
10030;DHT22;5055;52.054;8.524;2023-07-28T15:49:29;28.50;97.00
10030;DHT22;5055;52.054;8.524;2023-07-28T15:51:57;28.30;97.00
10030;DHT22;5055;52.054;8.524;2023-07-28T15:54:25;28.40;97.00
10030;DHT22;5055;52.054;8.524;2023-07-28T15:56:54;28.10;97.00
10030;DHT22;5055;52.054;8.524;2023-07-28T15:59:22;27.90;97.00